Time;durP1;ratioP1;P1;durP2;ratioP2;P2;SDS_P1;SDS_P2;PMS_P1;PMS_P2;Temp;Humidity;BMP_temperature;BMP_pressure;BME280_temperature;BME280_humidity;BME280_pressure;Samples;Min_cycle;Max_cycle;Signal;HPM_P1;HPM_P2
2022/11/25 00:01:10;;;;;;;6.17;5.53;;;6.20;51.30;;;;;;20290;6922;311237;-73
2022/11/25 00:03:37;;;;;;;5.77;4.97;;;6.20;51.50;;;;;;20460;6922;119749;-74
2022/11/25 00:06:11;;;;;;;199.87;9.57;;;6.00;51.70;;;;;;20509;6922;119455;-73
2022/11/25 00:08:38;;;;;;;74.03;7.60;;;5.70;52.30;;;;;;20256;6922;311956;-73
2022/11/25 00:11:06;;;;;;;34.23;6.00;;;5.70;52.60;;;;;;20282;6922;312654;-73
2022/11/25 00:13:34;;;;;;;13.67;5.80;;;5.90;52.50;;;;;;20466;6922;119555;-75
2022/11/25 00:16:05;;;;;;;108.80;8.63;;;5.80;52.40;;;;;;20201;6911;312291;-73
2022/11/25 00:18:33;;;;;;;130.07;8.37;;;5.80;52.20;;;;;;20483;6923;119012;-73
2022/11/25 00:21:01;;;;;;;62.40;8.50;;;5.60;52.30;;;;;;20253;6922;281611;-73
2022/11/25 00:23:26;;;;;;;215.17;10.90;;;5.60;52.80;;;;;;20418;6922;119959;-73
2022/11/25 00:25:52;;;;;;;147.35;9.15;;;5.50;52.90;;;;;;20498;6922;122719;-73
2022/11/25 00:28:18;;;;;;;32.53;5.60;;;5.30;53.60;;;;;;20512;6920;118785;-73
2022/11/25 00:30:43;;;;;;;48.17;6.63;;;5.00;54.00;;;;;;20515;6921;121820;-73
2022/11/25 00:33:09;;;;;;;46.40;7.40;;;4.90;54.60;;;;;;20309;6921;311084;-74
2022/11/25 00:35:34;;;;;;;50.97;6.33;;;5.00;54.70;;;;;;20487;6921;118605;-74
2022/11/25 00:38:01;;;;;;;80.77;6.70;;;4.90;54.80;;;;;;20513;6921;119082;-74
2022/11/25 00:40:27;;;;;;;44.43;7.27;;;4.80;54.70;;;;;;20301;6921;282251;-73
2022/11/25 00:45:38;;;;;;;148.30;10.83;;;5.40;54.70;;;;;;20271;6921;311084;-75
2022/11/25 00:48:04;;;;;;;320.30;14.18;;;5.70;54.20;;;;;;20541;6908;124221;-73
2022/11/25 00:50:29;;;;;;;244.37;14.77;;;5.60;54.10;;;;;;20342;6908;282599;-74
2022/11/25 00:52:56;;;;;;;543.28;19.52;;;5.60;54.00;;;;;;20522;6922;118680;-74
2022/11/25 00:55:22;;;;;;;177.97;11.50;;;5.50;54.10;;;;;;20471;6922;120066;-74
2022/11/25 00:57:47;;;;;;;486.30;16.75;;;5.30;54.70;;;;;;20511;6922;121077;-74
2022/11/25 01:00:13;;;;;;;408.60;17.45;;;5.10;55.20;;;;;;20508;6922;118554;-74
2022/11/25 01:02:39;;;;;;;497.27;22.23;;;4.90;55.70;;;;;;20520;6922;118115;-74
2022/11/25 01:05:04;;;;;;;435.17;21.37;;;4.80;56.70;;;;;;20305;6922;311443;-74
2022/11/25 01:07:30;;;;;;;369.50;20.17;;;4.90;56.40;;;;;;20501;6922;118772;-76
2022/11/25 01:09:56;;;;;;;209.95;15.68;;;5.00;56.10;;;;;;20319;6922;313087;-74
2022/11/25 01:12:21;;;;;;;249.43;15.83;;;5.20;56.20;;;;;;20320;6922;281921;-74
2022/11/25 01:14:47;;;;;;;213.30;13.27;;;5.60;55.70;;;;;;20526;6922;119275;-74
2022/11/25 01:17:12;;;;;;;215.03;13.60;;;5.50;55.30;;;;;;20521;6922;122919;-74
2022/11/25 01:19:39;;;;;;;120.70;13.18;;;5.30;55.80;;;;;;20277;6922;320854;-74
2022/11/25 01:22:03;;;;;;;54.23;8.70;;;5.40;56.30;;;;;;20536;6922;118854;-74
2022/11/25 01:24:29;;;;;;;125.65;13.27;;;5.40;56.10;;;;;;20319;6922;313055;-74
2022/11/25 01:26:55;;;;;;;28.90;8.90;;;5.50;55.70;;;;;;20318;6922;339975;-74
2022/11/25 01:29:20;;;;;;;165.85;14.00;;;5.80;55.30;;;;;;20364;6908;310583;-74
2022/11/25 01:31:47;;;;;;;122.47;12.57;;;6.10;54.50;;;;;;20287;6922;320203;-74
2022/11/25 01:34:14;;;;;;;225.32;15.88;;;6.30;53.60;;;;;;20319;6922;284140;-74
2022/11/25 01:36:40;;;;;;;94.20;13.17;;;6.40;53.10;;;;;;20300;6922;310816;-74
2022/11/25 01:39:06;;;;;;;202.50;17.07;;;6.60;52.90;;;;;;20314;6920;312088;-73
2022/11/25 01:41:32;;;;;;;311.00;17.77;;;6.60;52.90;;;;;;20505;6921;118957;-73
2022/11/25 01:44:11;;;;;;;401.73;21.08;;;6.40;53.20;;;;;;20521;6921;118540;-72
2022/11/25 01:46:45;;;;;;;156.57;13.70;;;6.00;53.90;;;;;;20534;6921;118639;-73
2022/11/25 01:49:18;;;;;;;17.30;10.47;;;5.70;54.60;;;;;;20322;6921;311666;-73
2022/11/25 01:52:00;;;;;;;12.03;10.73;;;5.80;55.00;;;;;;20336;6908;282647;-73
2022/11/25 01:54:25;;;;;;;8.37;7.60;;;6.10;54.80;;;;;;20527;6921;117777;-73
2022/11/25 01:56:54;;;;;;;8.97;8.00;;;6.00;54.60;;;;;;20511;6921;119644;-73
2022/11/25 01:59:20;;;;;;;7.83;7.13;;;5.80;55.20;;;;;;20513;6922;117595;-74
2022/11/25 02:01:45;;;;;;;8.77;7.23;;;5.60;55.70;;;;;;20497;6922;117650;-73
2022/11/25 02:04:11;;;;;;;8.90;7.32;;;5.40;56.20;;;;;;20527;6922;118161;-73
2022/11/25 02:06:50;;;;;;;10.10;8.03;;;5.30;56.60;;;;;;20515;6922;118394;-73
2022/11/25 02:09:15;;;;;;;7.77;7.13;;;5.30;57.00;;;;;;20446;6922;119074;-74
2022/11/25 02:11:41;;;;;;;10.30;9.33;;;5.20;57.30;;;;;;20292;6922;311692;-74
2022/11/25 02:14:07;;;;;;;11.60;9.00;;;5.90;57.30;;;;;;20299;6923;311254;-74
2022/11/25 02:16:33;;;;;;;9.50;8.60;;;5.90;57.20;;;;;;20307;6922;297905;-74
2022/11/25 02:18:58;;;;;;;9.47;8.67;;;6.30;56.50;;;;;;20532;6922;117594;-74
2022/11/25 02:21:37;;;;;;;9.50;8.40;;;6.20;56.10;;;;;;20523;6922;117811;-74
2022/11/25 02:24:06;;;;;;;10.13;9.13;;;6.00;56.40;;;;;;20333;6908;310185;-74
2022/11/25 02:26:32;;;;;;;10.87;9.73;;;6.20;56.30;;;;;;20334;6908;281007;-74
2022/11/25 02:28:57;;;;;;;9.75;7.97;;;6.40;55.40;;;;;;20523;6923;122498;-74
2022/11/25 02:31:23;;;;;;;10.97;9.60;;;6.30;55.10;;;;;;20310;6922;322067;-74
2022/11/25 02:33:48;;;;;;;8.80;7.93;;;6.30;55.30;;;;;;20497;6922;117832;-74
2022/11/25 02:36:17;;;;;;;10.60;9.63;;;6.20;55.20;;;;;;20311;6922;312114;-74
2022/11/25 02:38:50;;;;;;;10.38;9.27;;;6.50;55.80;;;;;;20299;6922;311594;-73
2022/11/25 02:41:18;;;;;;;10.37;7.93;;;6.40;55.70;;;;;;20565;6908;117904;-74
2022/11/25 02:43:45;;;;;;;11.20;7.80;;;6.00;56.30;;;;;;20482;6922;118046;-74
2022/11/25 02:46:11;;;;;;;10.20;9.15;;;6.00;56.30;;;;;;20299;6922;313112;-74
2022/11/25 02:48:38;;;;;;;11.30;9.88;;;6.40;55.70;;;;;;20305;6922;281956;-73
2022/11/25 02:51:04;;;;;;;8.70;7.80;;;6.20;55.70;;;;;;20516;6920;118093;-73
2022/11/25 02:53:30;;;;;;;8.03;7.23;;;6.20;55.20;;;;;;20497;6921;118197;-75
2022/11/25 02:55:55;;;;;;;8.23;7.53;;;5.90;55.80;;;;;;20527;6921;117598;-74
2022/11/25 02:58:22;;;;;;;8.00;7.20;;;5.50;57.10;;;;;;20532;6921;117715;-73
2022/11/25 03:00:47;;;;;;;8.30;7.00;;;5.50;57.10;;;;;;20527;6921;117608;-73
2022/11/25 03:03:13;;;;;;;10.45;9.25;;;5.40;57.50;;;;;;20314;6921;311892;-74
2022/11/25 03:05:38;;;;;;;7.80;7.07;;;5.50;57.40;;;;;;20550;6908;141603;-74
2022/11/25 03:08:04;;;;;;;7.30;6.33;;;5.50;56.80;;;;;;20528;6921;117636;-74
2022/11/25 03:10:29;;;;;;;8.45;6.45;;;5.40;57.20;;;;;;20304;6922;311049;-75
2022/11/25 03:12:55;;;;;;;8.43;7.60;;;5.60;57.80;;;;;;20307;6922;340421;-73
2022/11/25 03:15:21;;;;;;;8.18;7.32;;;5.90;57.30;;;;;;20311;6922;310678;-74
2022/11/25 03:17:46;;;;;;;7.40;6.70;;;6.30;56.30;;;;;;20279;6923;314028;-73
2022/11/25 03:20:13;;;;;;;6.68;4.95;;;6.50;55.60;;;;;;20527;6922;118906;-73
2022/11/25 03:22:37;;;;;;;6.43;5.30;;;6.40;55.60;;;;;;20526;6922;122021;-73
2022/11/25 03:25:03;;;;;;;4.93;4.30;;;6.10;56.20;;;;;;20520;6922;117777;-74
2022/11/25 03:27:30;;;;;;;5.30;4.77;;;5.70;57.40;;;;;;20520;6922;117571;-76
2022/11/25 03:29:55;;;;;;;6.10;5.60;;;5.70;57.50;;;;;;20364;6922;118007;-74
2022/11/25 03:32:21;;;;;;;8.10;7.40;;;5.60;57.80;;;;;;20299;6922;313844;-74
2022/11/25 03:34:46;;;;;;;8.75;7.87;;;5.70;57.40;;;;;;20308;6922;283119;-74
2022/11/25 03:37:12;;;;;;;7.05;6.37;;;6.10;56.00;;;;;;20524;6922;117614;-73
2022/11/25 03:39:37;;;;;;;7.00;6.30;;;6.10;55.80;;;;;;20528;6908;119601;-74
2022/11/25 03:42:03;;;;;;;7.32;6.70;;;5.90;56.10;;;;;;20522;6922;117726;-73
2022/11/25 03:44:29;;;;;;;7.37;6.68;;;5.70;56.70;;;;;;20494;6922;117774;-73
2022/11/25 03:46:54;;;;;;;6.83;6.23;;;5.50;57.10;;;;;;20525;6922;118828;-73
2022/11/25 03:49:20;;;;;;;7.90;7.25;;;5.40;57.50;;;;;;20309;6922;282202;-74
2022/11/25 03:51:45;;;;;;;7.00;6.50;;;5.60;56.90;;;;;;20505;6922;118926;-73
2022/11/25 03:54:11;;;;;;;6.43;5.93;;;5.70;56.60;;;;;;20528;6922;117803;-73
2022/11/25 03:56:37;;;;;;;8.00;6.50;;;5.60;56.70;;;;;;20561;6908;117521;-73
2022/11/25 03:59:02;;;;;;;7.53;6.83;;;5.40;56.70;;;;;;20527;6922;119293;-74
2022/11/25 04:01:28;;;;;;;21.10;8.52;;;5.30;56.90;;;;;;20313;6922;320789;-74
2022/11/25 04:03:53;;;;;;;15.10;8.60;;;5.40;56.30;;;;;;20300;6920;340533;-73
2022/11/25 04:06:20;;;;;;;46.22;9.18;;;5.80;55.30;;;;;;20525;6921;118046;-73
2022/11/25 04:08:44;;;;;;;55.65;11.25;;;5.80;55.00;;;;;;20305;6921;341002;-73
2022/11/25 04:11:10;;;;;;;61.50;11.60;;;5.80;54.90;;;;;;20312;6921;340440;-74
2022/11/25 04:13:36;;;;;;;28.27;10.65;;;6.10;54.30;;;;;;20295;6921;310963;-74
2022/11/25 04:16:01;;;;;;;37.30;9.02;;;6.30;53.80;;;;;;20543;6908;118518;-74
2022/11/25 04:18:27;;;;;;;13.57;9.23;;;6.10;53.80;;;;;;20296;6921;281451;-73
2022/11/25 04:20:53;;;;;;;17.90;8.73;;;5.90;54.20;;;;;;20498;6921;117926;-73
2022/11/25 04:23:19;;;;;;;19.27;8.60;;;5.90;54.10;;;;;;20505;6922;119131;-73
2022/11/25 04:25:45;;;;;;;29.40;11.10;;;5.70;55.00;;;;;;20280;6922;281146;-74
2022/11/25 04:28:11;;;;;;;62.87;10.83;;;5.70;55.00;;;;;;20499;6922;120534;-73
2022/11/25 04:30:36;;;;;;;17.65;10.63;;;5.70;54.90;;;;;;20308;6922;311267;-73
2022/11/25 04:33:02;;;;;;;11.63;9.87;;;6.00;54.20;;;;;;20291;6922;311172;-74
2022/11/25 04:35:28;;;;;;;10.10;8.23;;;5.90;54.10;;;;;;20512;6922;119864;-75
2022/11/25 04:37:54;;;;;;;7.93;7.22;;;5.90;54.30;;;;;;20507;6922;118103;-75
2022/11/25 04:40:19;;;;;;;9.47;8.57;;;5.60;54.80;;;;;;20313;6922;310738;-74
2022/11/25 04:42:45;;;;;;;8.77;8.10;;;5.70;55.30;;;;;;20317;6922;312054;-74
2022/11/25 04:45:10;;;;;;;7.60;7.00;;;5.90;54.60;;;;;;20517;6922;119651;-74
2022/11/25 04:47:36;;;;;;;8.90;8.00;;;5.80;54.50;;;;;;20286;6922;313446;-75
2022/11/25 04:50:02;;;;;;;8.77;7.77;;;5.90;54.70;;;;;;20311;6922;313727;-73
2022/11/25 04:52:28;;;;;;;8.57;7.87;;;6.30;54.00;;;;;;20308;6922;291631;-74
2022/11/25 04:54:54;;;;;;;8.73;7.97;;;6.30;54.00;;;;;;20311;6922;311880;-72
2022/11/25 04:57:19;;;;;;;8.83;8.03;;;6.50;53.90;;;;;;20321;6922;313147;-72
2022/11/25 04:59:45;;;;;;;10.63;8.23;;;6.60;53.50;;;;;;20323;6922;304326;-73
2022/11/25 05:02:20;;;;;;;7.30;6.80;;;6.60;53.50;;;;;;20557;6922;118334;-71
2022/11/25 05:04:46;;;;;;;7.00;6.40;;;6.40;53.70;;;;;;20544;6922;118819;-74
2022/11/25 05:07:11;;;;;;;7.65;6.90;;;6.00;54.30;;;;;;20548;6922;119687;-73
2022/11/25 05:09:37;;;;;;;8.18;6.50;;;5.70;55.00;;;;;;20534;6922;130624;-70
2022/11/25 05:12:03;;;;;;;7.53;6.80;;;5.40;55.50;;;;;;20547;6922;117569;-68
2022/11/25 05:14:29;;;;;;;9.45;8.25;;;5.30;56.10;;;;;;20327;6920;345607;-71
2022/11/25 05:16:55;;;;;;;9.73;8.73;;;5.30;56.10;;;;;;20339;6921;283625;-71
2022/11/25 05:19:20;;;;;;;7.93;7.05;;;5.70;55.50;;;;;;20547;6921;116711;-70
2022/11/25 05:21:46;;;;;;;8.55;7.85;;;5.60;54.80;;;;;;20503;6921;117651;-69
2022/11/25 05:24:11;;;;;;;8.35;7.55;;;5.30;55.20;;;;;;20524;6921;118739;-69
2022/11/25 05:26:37;;;;;;;9.07;8.10;;;5.10;55.80;;;;;;20521;6921;119214;-70
2022/11/25 05:29:03;;;;;;;7.87;7.30;;;4.90;56.10;;;;;;20515;6921;121199;-69
2022/11/25 05:31:29;;;;;;;9.67;7.67;;;4.80;56.60;;;;;;20559;6908;117470;-72
2022/11/25 05:33:55;;;;;;;7.97;7.22;;;4.60;57.20;;;;;;20510;6922;118236;-68
2022/11/25 05:36:21;;;;;;;7.93;6.87;;;4.60;57.20;;;;;;20490;6922;117666;-71
2022/11/25 05:38:47;;;;;;;8.93;8.05;;;4.50;57.50;;;;;;20312;6922;310775;-71
2022/11/25 05:41:12;;;;;;;7.80;6.90;;;4.80;58.20;;;;;;20570;6908;117650;-69
2022/11/25 05:43:38;;;;;;;10.27;9.15;;;4.90;57.70;;;;;;20291;6922;310777;-71
2022/11/25 05:46:07;;;;;;;7.78;6.93;;;5.10;57.70;;;;;;20521;6922;118425;-72
2022/11/25 05:48:32;;;;;;;8.20;7.47;;;5.20;57.30;;;;;;20514;6922;117592;-72
2022/11/25 05:50:58;;;;;;;9.57;8.37;;;5.00;57.40;;;;;;20339;6908;281399;-71
2022/11/25 05:53:24;;;;;;;9.03;8.23;;;5.10;57.00;;;;;;20509;6922;117981;-69
2022/11/25 05:55:56;;;;;;;8.43;7.80;;;5.20;56.90;;;;;;20266;6922;287146;-70
2022/11/25 05:58:21;;;;;;;8.00;7.40;;;5.30;56.50;;;;;;20308;6922;280678;-70
2022/11/25 06:00:48;;;;;;;8.47;7.63;;;6.00;55.50;;;;;;20316;6922;311649;-70
2022/11/25 06:03:13;;;;;;;7.67;6.97;;;6.00;55.00;;;;;;20522;6922;117656;-70
2022/11/25 06:05:40;;;;;;;8.47;7.67;;;5.90;54.90;;;;;;20297;6922;282583;-72
2022/11/25 06:08:04;;;;;;;8.73;7.90;;;5.90;54.70;;;;;;20351;6908;282044;-70
2022/11/25 06:10:30;;;;;;;8.63;7.87;;;6.20;54.50;;;;;;20340;6908;312235;-70
2022/11/25 06:12:56;;;;;;;7.87;7.17;;;6.40;53.70;;;;;;20544;6908;118497;-71
2022/11/25 06:15:22;;;;;;;8.85;8.10;;;6.20;53.80;;;;;;20297;6923;309380;-70
2022/11/25 06:17:47;;;;;;;8.03;7.33;;;6.20;54.10;;;;;;20494;6923;129501;-70
2022/11/25 06:20:13;;;;;;;7.15;6.55;;;6.00;54.10;;;;;;20519;6922;118084;-70
2022/11/25 06:22:38;;;;;;;8.30;6.62;;;5.70;54.60;;;;;;20522;6922;117720;-72
2022/11/25 06:25:06;;;;;;;9.07;8.15;;;5.50;55.40;;;;;;20302;6920;310733;-72
2022/11/25 06:27:31;;;;;;;8.60;7.60;;;5.60;56.50;;;;;;20276;6921;310720;-70
2022/11/25 06:29:57;;;;;;;8.95;7.37;;;5.90;56.20;;;;;;20315;6921;281849;-72
2022/11/25 06:32:22;;;;;;;8.10;7.30;;;6.20;55.90;;;;;;20317;6921;300717;-72
2022/11/25 06:34:48;;;;;;;8.40;6.20;;;6.50;55.50;;;;;;20530;6921;117985;-72
2022/11/25 06:37:14;;;;;;;6.25;5.80;;;6.30;55.40;;;;;;20531;6921;118325;-71
2022/11/25 06:39:39;;;;;;;7.30;6.70;;;6.00;55.80;;;;;;20295;6921;307847;-70
2022/11/25 06:42:05;;;;;;;5.93;5.47;;;6.10;56.30;;;;;;20520;6921;118233;-69
2022/11/25 06:44:30;;;;;;;9.77;9.00;;;6.10;56.20;;;;;;20311;6922;315478;-69
2022/11/25 06:46:56;;;;;;;9.90;9.10;;;6.20;55.40;;;;;;20314;6922;313247;-72
2022/11/25 06:49:22;;;;;;;12.90;11.80;;;6.40;53.90;;;;;;20308;6922;281310;-72
2022/11/25 06:51:50;;;;;;;10.97;9.97;;;6.50;53.00;;;;;;20282;6922;310734;-74
2022/11/25 06:54:17;;;;;;;25.43;22.53;;;6.60;52.40;;;;;;20565;6908;119217;-70
2022/11/25 06:56:43;;;;;;;9.67;8.80;;;6.40;52.60;;;;;;20290;6922;306881;-71
2022/11/25 06:59:08;;;;;;;8.57;7.70;;;6.20;52.50;;;;;;20525;6922;118125;-71
2022/11/25 07:01:35;;;;;;;9.63;8.65;;;6.00;52.80;;;;;;20218;6922;340310;-71
2022/11/25 07:04:02;;;;;;;8.23;7.45;;;6.00;53.60;;;;;;20279;6922;313701;-70
2022/11/25 07:06:26;;;;;;;7.60;6.60;;;6.20;52.90;;;;;;20508;6922;117534;-70
2022/11/25 07:08:52;;;;;;;8.57;7.73;;;6.00;52.90;;;;;;20314;6922;312781;-74
2022/11/25 07:11:24;;;;;;;8.97;8.07;;;6.20;53.40;;;;;;20275;6922;310767;-73
2022/11/25 07:13:50;;;;;;;9.80;8.27;;;6.10;53.20;;;;;;20320;6908;312951;-73
2022/11/25 07:16:16;;;;;;;9.77;8.77;;;6.50;52.80;;;;;;20261;6922;281551;-73
2022/11/25 07:18:42;;;;;;;9.63;8.80;;;6.40;52.70;;;;;;20298;6922;310708;-72
2022/11/25 07:21:14;;;;;;;8.98;8.07;;;6.30;52.80;;;;;;20516;6922;118355;-72
2022/11/25 07:23:40;;;;;;;7.57;6.90;;;6.30;52.70;;;;;;20532;6908;118723;-73
2022/11/25 07:26:16;;;;;;;7.93;7.20;;;5.70;54.40;;;;;;20515;6922;118080;-72
2022/11/25 07:28:42;;;;;;;7.20;6.50;;;5.50;54.60;;;;;;20513;6922;117603;-73
2022/11/25 07:31:10;;;;;;;6.97;6.27;;;5.50;55.00;;;;;;20519;6922;117758;-73
2022/11/25 07:33:37;;;;;;;9.32;8.52;;;5.60;56.00;;;;;;20308;6908;310030;-73
2022/11/25 07:36:05;;;;;;;8.47;7.20;;;5.60;56.00;;;;;;20530;6922;119034;-73
2022/11/25 07:38:32;;;;;;;8.10;7.10;;;5.70;55.70;;;;;;20529;6920;119627;-72
2022/11/25 07:41:08;;;;;;;8.30;7.27;;;5.60;55.80;;;;;;20532;6921;117657;-72
2022/11/25 07:43:33;;;;;;;8.90;8.00;;;5.50;56.00;;;;;;20335;6908;339366;-74
2022/11/25 07:46:16;;;;;;;7.40;6.80;;;5.80;56.10;;;;;;20531;6921;117792;-72
2022/11/25 07:48:42;;;;;;;6.97;6.33;;;5.70;56.00;;;;;;20563;6908;117451;-71
2022/11/25 07:51:18;;;;;;;7.67;7.07;;;5.90;56.90;;;;;;20310;6921;313605;-71
2022/11/25 07:53:44;;;;;;;8.30;7.60;;;5.90;56.90;;;;;;20336;6908;282786;-73
2022/11/25 07:56:10;;;;;;;7.82;7.20;;;6.40;56.30;;;;;;20317;6922;283580;-72
2022/11/25 07:58:35;;;;;;;7.68;6.90;;;6.70;55.40;;;;;;20524;6922;116827;-72
2022/11/25 08:01:05;;;;;;;8.23;7.50;;;6.80;55.70;;;;;;20319;6922;292498;-72
2022/11/25 08:03:31;;;;;;;8.00;7.40;;;7.10;55.30;;;;;;20292;6922;310575;-73
2022/11/25 08:05:59;;;;;;;7.33;6.63;;;7.10;55.30;;;;;;20527;6922;120264;-72
2022/11/25 08:08:25;;;;;;;7.78;6.93;;;7.10;55.20;;;;;;20314;6922;341348;-72
2022/11/25 08:10:51;;;;;;;6.37;5.83;;;7.20;55.40;;;;;;20530;6922;118013;-72
2022/11/25 08:13:17;;;;;;;7.72;7.03;;;7.20;55.40;;;;;;20312;6922;341579;-71
2022/11/25 08:15:43;;;;;;;6.43;5.13;;;7.20;55.40;;;;;;20502;6922;118895;-72
2022/11/25 08:18:08;;;;;;;7.00;6.50;;;7.20;55.30;;;;;;20308;6922;310653;-72
2022/11/25 08:20:34;;;;;;;6.03;5.57;;;7.30;55.30;;;;;;20524;6922;121497;-73
2022/11/25 08:23:00;;;;;;;7.15;6.55;;;7.30;55.10;;;;;;20322;6922;281732;-73
2022/11/25 08:25:28;;;;;;;7.17;5.47;;;7.30;55.10;;;;;;20523;6922;118825;-74
2022/11/25 08:27:53;;;;;;;6.70;6.12;;;7.30;55.10;;;;;;20287;6922;283690;-74
2022/11/25 08:30:20;;;;;;;6.50;6.00;;;7.40;55.30;;;;;;20314;6922;308738;-74
2022/11/25 08:32:47;;;;;;;6.07;5.67;;;7.60;54.90;;;;;;20524;6922;117518;-78
2022/11/25 08:35:12;;;;;;;6.27;5.67;;;7.60;54.80;;;;;;20526;6922;117583;-75
2022/11/25 08:37:39;;;;;;;7.68;5.57;;;7.30;55.90;;;;;;20509;6922;120897;-74
2022/11/25 08:40:05;;;;;;;8.30;5.73;;;7.20;55.80;;;;;;20525;6922;117749;-72
2022/11/25 08:42:30;;;;;;;5.47;5.07;;;7.20;56.40;;;;;;20520;6922;117676;-74
2022/11/25 08:44:56;;;;;;;6.00;5.50;;;7.10;56.80;;;;;;20522;6922;117631;-71
2022/11/25 08:47:22;;;;;;;5.95;5.40;;;7.10;57.10;;;;;;20562;6908;117448;-72
2022/11/25 08:49:51;;;;;;;13.70;12.10;;;7.10;57.20;;;;;;20504;6920;127798;-70
2022/11/25 08:52:17;;;;;;;9.83;9.03;;;7.10;57.20;;;;;;20303;6921;321386;-76
2022/11/25 08:54:43;;;;;;;8.13;7.43;;;7.40;57.10;;;;;;20523;6921;117423;-72
2022/11/25 08:57:08;;;;;;;9.80;8.90;;;7.40;56.60;;;;;;20311;6921;312096;-72
2022/11/25 08:59:54;;;;;;;11.73;10.80;;;7.60;56.30;;;;;;20511;6921;118970;-71
2022/11/25 09:02:29;;;;;;;7.60;6.87;;;7.70;56.60;;;;;;20747;6789;118531;-73
2022/11/25 09:05:05;;;;;;;8.00;7.40;;;7.40;56.10;;;;;;20688;6789;118254;-72
2022/11/25 09:07:41;;;;;;;11.70;10.63;;;7.20;56.90;;;;;;20492;6778;307657;-73
2022/11/25 09:10:16;;;;;;;7.60;7.07;;;7.40;56.20;;;;;;20754;6789;118928;-73
2022/11/25 09:12:52;;;;;;;6.57;5.97;;;7.30;55.80;;;;;;20723;6790;117544;-72
2022/11/25 09:15:28;;;;;;;7.90;7.25;;;7.30;56.60;;;;;;20469;6789;339766;-72
2022/11/25 09:18:06;;;;;;;7.75;6.90;;;7.30;56.60;;;;;;20541;6790;279075;-72
2022/11/25 09:20:42;;;;;;;7.43;6.67;;;7.70;56.20;;;;;;20731;6793;117494;-72
2022/11/25 09:23:19;;;;;;;8.15;7.50;;;7.70;56.10;;;;;;20547;6790;336791;-72
2022/11/25 09:25:53;;;;;;;7.07;6.40;;;7.90;56.20;;;;;;20579;6792;117701;-72
2022/11/25 09:28:30;;;;;;;6.83;6.23;;;7.70;56.50;;;;;;20770;6780;117019;-71
2022/11/25 09:31:05;;;;;;;7.22;6.72;;;7.70;56.50;;;;;;20471;6808;342757;-71
2022/11/25 09:33:41;;;;;;;7.37;6.68;;;7.90;56.60;;;;;;20430;6819;279208;-71
2022/11/25 09:36:16;;;;;;;10.97;8.97;;;8.30;55.70;;;;;;20359;6801;310496;-71
2022/11/25 09:38:52;;;;;;;7.40;6.80;;;8.70;55.00;;;;;;20755;6789;117656;-71
2022/11/25 09:48:29;;;;;;;26.40;20.50;;;8.70;55.00;;;;;;20518;6793;310667;-72
2022/11/25 09:51:17;;;;;;;6.83;6.40;;;9.20;54.30;;;;;;20692;6806;118785;-72
2022/11/25 09:53:53;;;;;;;6.90;6.30;;;9.10;54.10;;;;;;20240;6865;279598;-72
2022/11/25 09:56:52;;;;;;;8.33;7.53;;;9.40;53.00;;;;;;20374;6806;308279;-72
2022/11/25 09:59:38;;;;;;;9.87;7.00;;;9.60;52.40;;;;;;20571;6779;310241;-72
2022/11/25 10:02:20;;;;;;;7.33;6.63;;;9.60;52.40;;;;;;20786;6778;117441;-72
2022/11/25 10:04:56;;;;;;;6.53;6.03;;;9.40;52.80;;;;;;20667;6808;117577;-71
2022/11/25 10:07:35;;;;;;;6.47;5.97;;;8.80;54.10;;;;;;20724;6795;117232;-71
2022/11/25 10:10:14;;;;;;;6.33;5.73;;;8.80;54.10;;;;;;20706;6807;117375;-72
2022/11/25 10:12:50;;;;;;;7.70;6.90;;;8.90;55.10;;;;;;20491;6807;308674;-72
2022/11/25 10:15:29;;;;;;;6.87;6.17;;;8.90;55.00;;;;;;20627;6807;117746;-72
2022/11/25 10:18:05;;;;;;;6.40;5.90;;;9.00;55.20;;;;;;20697;6807;117390;-72
2022/11/25 10:20:41;;;;;;;6.77;5.23;;;9.00;55.20;;;;;;20700;6807;121571;-72
2022/11/25 10:23:26;;;;;;;5.97;5.40;;;8.90;55.50;;;;;;20692;6807;121825;-72
2022/11/25 10:26:02;;;;;;;7.00;6.30;;;8.90;55.70;;;;;;20344;6807;283201;-71
2022/11/25 10:28:37;;;;;;;6.60;6.00;;;9.20;55.40;;;;;;20642;6819;117287;-72
2022/11/25 10:34:49;;;;;;;7.73;6.97;;;9.20;55.20;;;;;;20476;6802;281535;-72
2022/11/25 10:37:28;;;;;;;7.97;6.57;;;9.60;55.60;;;;;;20436;6815;280581;-73
2022/11/25 10:40:04;;;;;;;6.97;6.40;;;9.90;54.90;;;;;;20552;6779;282896;-73
2022/11/25 10:42:39;;;;;;;7.57;6.17;;;10.30;53.30;;;;;;20557;6780;310425;-73
2022/11/25 10:45:15;;;;;;;7.03;5.63;;;10.60;53.40;;;;;;20717;6782;117739;-73
2022/11/25 10:47:57;;;;;;;6.20;5.70;;;10.60;52.80;;;;;;20767;6782;118813;-73
2022/11/25 10:50:53;;;;;;;6.57;5.97;;;10.60;53.30;;;;;;20710;6804;118742;-72
2022/11/25 10:53:29;;;;;;;6.93;6.30;;;10.50;53.90;;;;;;20570;6782;311375;-73
2022/11/25 10:56:04;;;;;;;6.40;5.70;;;10.90;53.30;;;;;;20421;6789;281454;-73
2022/11/25 10:58:41;;;;;;;6.60;6.00;;;11.30;52.90;;;;;;20457;6821;310042;-72
2022/11/25 11:01:18;;;;;;;6.80;6.10;;;11.60;51.90;;;;;;20452;6814;281683;-74
2022/11/25 11:04:05;;;;;;;6.78;6.18;;;11.90;51.10;;;;;;20368;6828;309175;-72
2022/11/25 11:06:41;;;;;;;6.72;6.12;;;12.10;51.00;;;;;;20312;6810;281456;-75
2022/11/25 11:09:36;;;;;;;6.30;5.70;;;12.30;50.50;;;;;;20406;6822;280369;-73
2022/11/25 11:12:12;;;;;;;5.85;5.10;;;12.30;50.50;;;;;;20492;6807;311773;-74
2022/11/25 11:14:47;;;;;;;4.10;3.80;;;12.40;50.40;;;;;;20628;6821;122437;-74
2022/11/25 11:17:26;;;;;;;5.13;4.03;;;12.10;50.70;;;;;;20763;6779;119164;-73
2022/11/25 11:20:05;;;;;;;6.67;6.07;;;11.70;52.00;;;;;;20553;6779;311284;-74
2022/11/25 11:22:48;;;;;;;6.97;5.93;;;11.60;51.90;;;;;;20792;6779;117657;-73
2022/11/25 11:25:29;;;;;;;6.97;6.40;;;11.50;52.00;;;;;;20524;6850;118336;-73
2022/11/25 11:28:22;;;;;;;7.20;5.80;;;10.90;52.90;;;;;;20776;6782;118172;-72
2022/11/25 11:31:01;;;;;;;7.83;6.73;;;10.90;52.90;;;;;;20525;6794;301727;-72
2022/11/25 11:33:40;;;;;;;10.10;6.23;;;11.00;53.10;;;;;;20754;6784;123987;-74
2022/11/25 11:36:39;;;;;;;9.47;7.00;;;11.00;53.10;;;;;;20420;6782;310147;-73
2022/11/25 11:39:24;;;;;;;7.20;6.10;;;11.10;52.80;;;;;;20222;6855;124812;-74
2022/11/25 11:42:12;;;;;;;13.73;9.93;;;11.00;52.70;;;;;;20720;6794;119621;-75
2022/11/25 11:45:09;;;;;;;7.60;5.90;;;10.60;53.60;;;;;;20749;6784;120972;-74
2022/11/25 11:48:01;;;;;;;10.23;9.23;;;10.50;53.50;;;;;;20751;6784;117957;-75
2022/11/25 11:50:40;;;;;;;7.33;6.70;;;10.40;54.00;;;;;;20537;6794;278927;-74
2022/11/25 11:53:32;;;;;;;8.60;6.90;;;10.60;54.60;;;;;;20771;6779;123709;-75
2022/11/25 11:56:07;;;;;;;7.68;6.93;;;10.70;54.20;;;;;;20398;6794;298937;-75
2022/11/25 11:58:54;;;;;;;9.07;7.50;;;10.80;54.40;;;;;;20804;6765;117626;-74
2022/11/25 12:01:42;;;;;;;7.13;6.17;;;10.80;53.70;;;;;;20826;6765;117072;-74
2022/11/25 12:04:37;;;;;;;9.30;6.37;;;10.70;54.00;;;;;;20827;6765;117533;-74
2022/11/25 12:07:36;;;;;;;6.70;6.00;;;10.50;54.30;;;;;;20733;6798;117269;-74
2022/11/25 12:10:32;;;;;;;7.23;6.00;;;10.30;54.60;;;;;;20689;6809;117483;-72
2022/11/25 12:13:34;;;;;;;9.13;6.82;;;10.10;54.80;;;;;;20519;6798;340733;-73
2022/11/25 12:16:19;;;;;;;7.87;5.93;;;10.40;55.00;;;;;;20431;6783;313379;-73
2022/11/25 12:18:52;;;;;;;10.57;9.10;;;10.80;54.40;;;;;;20768;6785;117317;-73
2022/11/25 12:21:50;;;;;;;8.02;6.40;;;10.80;54.20;;;;;;20265;6785;312556;-73
2022/11/25 12:24:53;;;;;;;7.57;6.17;;;10.90;54.60;;;;;;20504;6799;308727;-74
2022/11/25 12:27:38;;;;;;;9.63;7.30;;;11.30;54.00;;;;;;20775;6785;117837;-74
2022/11/25 12:30:15;;;;;;;7.37;6.75;;;11.20;53.80;;;;;;20464;6814;338846;-74
2022/11/25 12:33:09;;;;;;;9.00;8.23;;;11.30;53.80;;;;;;20775;6785;117700;-73
2022/11/25 12:36:09;;;;;;;11.90;8.23;;;11.30;53.80;;;;;;20326;6814;311880;-74
2022/11/25 12:38:53;;;;;;;10.67;9.67;;;11.40;53.90;;;;;;20563;6785;308126;-73
2022/11/25 12:41:40;;;;;;;8.88;8.18;;;11.70;53.30;;;;;;20564;6785;307917;-73
2022/11/25 12:44:22;;;;;;;5.90;4.90;;;12.00;53.20;;;;;;20741;6785;271735;-73
2022/11/25 12:46:58;;;;;;;5.78;5.22;;;11.90;52.80;;;;;;20519;6797;337153;-74
2022/11/25 12:49:44;;;;;;;8.10;5.70;;;11.90;52.80;;;;;;20714;6797;117563;-74
2022/11/25 12:52:25;;;;;;;5.53;4.30;;;11.80;52.90;;;;;;20452;6811;280170;-73
2022/11/25 12:55:15;;;;;;;6.30;4.60;;;11.80;53.10;;;;;;20400;6811;311749;-73
2022/11/25 12:58:07;;;;;;;4.70;3.90;;;11.80;52.60;;;;;;20668;6813;190904;-73
2022/11/25 13:01:05;;;;;;;4.20;3.80;;;11.80;52.60;;;;;;20510;6797;280510;-74
2022/11/25 13:03:48;;;;;;;4.40;4.00;;;11.80;53.10;;;;;;20508;6797;301019;-74
2022/11/25 13:06:28;;;;;;;5.40;4.03;;;12.00;52.80;;;;;;20376;6797;311600;-74
2022/11/25 13:09:03;;;;;;;5.37;3.80;;;12.20;52.50;;;;;;20731;6799;117409;-75
2022/11/25 13:11:38;;;;;;;5.00;4.50;;;11.90;53.10;;;;;;20440;6814;312257;-77
2022/11/25 13:14:16;;;;;;;7.28;6.65;;;11.90;53.00;;;;;;20335;6886;311651;-74